sim
Sign-in with your pilot id or email,
or register
Callsign
Passwort

Schedule Details

Flight Number: EWG9225 (3)
Departure: Gothenburg Landvetter Airport (ESGG) at 18:45
Arrival: Dusseldorf International Airport (EDDL) at 20:40
Route: Eurowings Passenger Schedule. Enter filed route here before submitting Pirep.

Weather Information
Getting current METAR information for ESGG 291420Z 23004KT 9999 FEW008 SCT043 09/07 Q1005
Getting current METAR information for EDDL 291420Z 21009KT 9999 -RA FEW022 11/09 Q1017 TEMPO RA

Schedule Frequency

Route Map